Time;durP1;ratioP1;P1;durP2;ratioP2;P2;SDS_P1;SDS_P2;PMS_P1;PMS_P2;Temp;Humidity;BMP_temperature;BMP_pressure;BME280_temperature;BME280_humidity;BME280_pressure;Samples;Min_cycle;Max_cycle;Signal;HPM_P1;HPM_P2
2022/12/20 00:01:09;;;;;;;9.90;4.67;;;1.70;99.90;0.80;100306;;;;564362;250;24090;-72
2022/12/20 00:03:37;;;;;;;6.63;4.57;;;1.70;99.90;0.80;100301;;;;559459;250;24168;-76
2022/12/20 00:06:06;;;;;;;5.73;4.03;;;1.80;99.90;0.90;100313;;;;564501;250;24120;-76
2022/12/20 00:08:36;;;;;;;10.95;8.10;;;1.80;99.90;0.90;100308;;;;559257;250;35287;-72
2022/12/20 00:11:01;;;;;;;11.47;9.47;;;1.90;99.90;0.90;100307;;;;559097;250;46246;-73
2022/12/20 00:13:29;;;;;;;9.33;7.37;;;1.90;99.90;1.00;100310;;;;561623;250;25452;-70
2022/12/20 00:16:06;;;;;;;7.20;5.33;;;2.00;99.90;1.10;100317;;;;564447;250;24102;-71
2022/12/20 00:18:37;;;;;;;6.57;3.97;;;2.00;99.90;1.10;100313;;;;573120;250;24144;-72
2022/12/20 00:21:02;;;;;;;3.90;3.57;;;2.10;99.90;1.20;100323;;;;564985;250;24097;-71
2022/12/20 00:23:30;;;;;;;5.43;3.83;;;2.10;99.90;1.20;100317;;;;564321;250;24095;-71
2022/12/20 00:26:06;;;;;;;5.17;3.93;;;2.10;99.90;1.20;100322;;;;567247;248;24083;-70
2022/12/20 00:28:34;;;;;;;5.00;3.13;;;2.20;99.90;1.30;100314;;;;560556;250;24146;-70
2022/12/20 00:31:05;;;;;;;5.97;3.80;;;2.20;99.90;1.30;100301;;;;565052;250;24147;-70
2022/12/20 00:33:30;;;;;;;3.80;2.90;;;2.20;99.90;1.30;100301;;;;561876;250;24110;-70
2022/12/20 00:35:59;;;;;;;7.55;5.37;;;2.30;99.90;1.40;100302;;;;559497;250;35344;-70
2022/12/20 00:38:26;;;;;;;8.10;4.83;;;2.30;99.90;1.40;100305;;;;564111;250;24099;-70
2022/12/20 00:41:12;;;;;;;4.17;3.43;;;2.40;99.90;1.50;100291;;;;564460;250;24113;-69
2022/12/20 00:43:43;;;;;;;3.27;2.87;;;2.40;99.90;1.50;100298;;;;564395;250;24103;-69
2022/12/20 00:46:08;;;;;;;4.60;2.90;;;2.50;99.90;1.60;100292;;;;573115;250;24146;-70
2022/12/20 00:48:40;;;;;;;3.57;3.00;;;2.50;99.90;1.60;100284;;;;564825;250;24086;-70
2022/12/20 00:51:05;;;;;;;4.07;3.07;;;2.50;99.90;1.60;100282;;;;561784;250;24127;-71
2022/12/20 00:53:36;;;;;;;2.70;2.50;;;2.60;99.90;1.70;100280;;;;573063;249;24171;-72
2022/12/20 00:56:00;;;;;;;4.90;2.80;;;2.60;99.90;1.70;100280;;;;564291;250;24096;-72
2022/12/20 00:58:29;;;;;;;4.90;2.67;;;2.60;99.90;1.70;100278;;;;564647;250;24139;-72
2022/12/20 01:00:57;;;;;;;3.53;2.73;;;2.60;99.90;1.70;100271;;;;564842;250;24293;-70
2022/12/20 01:03:26;;;;;;;4.43;2.93;;;2.70;99.90;1.70;100276;;;;564270;250;24140;-71
2022/12/20 01:05:56;;;;;;;2.60;2.40;;;2.70;99.90;1.80;100271;;;;559308;249;24102;-71
2022/12/20 01:08:21;;;;;;;3.10;2.50;;;2.70;99.90;1.80;100260;;;;570145;247;24128;-71
2022/12/20 01:11:05;;;;;;;7.00;3.00;;;2.70;99.90;1.80;100266;;;;559018;249;24140;-71
2022/12/20 01:13:35;;;;;;;3.13;2.30;;;2.80;99.90;1.80;100268;;;;568893;250;24124;-71
2022/12/20 01:16:10;;;;;;;3.37;2.97;;;2.80;99.90;1.90;100269;;;;564068;250;24101;-70
2022/12/20 01:18:34;;;;;;;3.17;2.87;;;2.80;99.90;1.90;100273;;;;565076;250;24117;-70
2022/12/20 01:21:04;;;;;;;3.03;2.80;;;2.90;99.90;1.90;100251;;;;564198;250;24173;-71
2022/12/20 01:23:36;;;;;;;6.12;4.60;;;2.90;99.90;2.00;100255;;;;558752;250;35249;-71
2022/12/20 01:26:00;;;;;;;4.07;3.23;;;2.90;99.90;2.00;100249;;;;561073;250;24124;-73
2022/12/20 01:28:28;;;;;;;3.27;2.97;;;3.00;99.90;2.00;100256;;;;558998;250;24143;-72
2022/12/20 01:30:56;;;;;;;3.87;3.10;;;3.00;99.90;2.10;100262;;;;572807;249;24107;-72
2022/12/20 01:33:24;;;;;;;4.20;2.93;;;3.00;99.90;2.10;100254;;;;563695;250;24098;-73
2022/12/20 01:35:57;;;;;;;3.10;2.87;;;3.00;99.90;2.10;100243;;;;563725;250;24146;-70
2022/12/20 01:38:25;;;;;;;2.60;2.33;;;3.10;99.90;2.10;100241;;;;567995;249;24114;-71
2022/12/20 01:40:57;;;;;;;4.43;3.13;;;3.10;99.90;2.10;100251;;;;564655;250;24110;-71
2022/12/20 01:43:23;;;;;;;3.43;2.87;;;3.10;99.90;2.20;100244;;;;565056;250;24195;-72
2022/12/20 01:45:53;;;;;;;5.33;3.77;;;3.10;99.90;2.20;100243;;;;565118;250;24093;-71
2022/12/20 01:48:18;;;;;;;3.37;2.93;;;3.10;99.90;2.20;100230;;;;567931;250;24114;-72
2022/12/20 01:50:49;;;;;;;4.80;3.37;;;3.10;99.90;2.20;100224;;;;573661;250;24128;-77
2022/12/20 01:53:18;;;;;;;4.33;3.23;;;3.20;99.90;2.20;100238;;;;573012;250;24175;-71
2022/12/20 01:55:46;;;;;;;5.43;3.53;;;3.20;99.90;2.20;100229;;;;569226;250;24209;-72
2022/12/20 01:58:11;;;;;;;4.50;3.30;;;3.20;99.90;2.20;100223;;;;563977;250;24186;-76
2022/12/20 02:00:39;;;;;;;7.63;4.53;;;3.20;99.90;2.30;100225;;;;572945;249;25273;-73
2022/12/20 02:03:07;;;;;;;4.27;3.60;;;3.20;99.90;2.30;100216;;;;563946;250;24093;-72
2022/12/20 02:05:38;;;;;;;5.73;4.50;;;3.20;99.90;2.30;100217;;;;572828;249;24158;-72
2022/12/20 02:08:09;;;;;;;6.63;5.27;;;3.20;99.90;2.30;100212;;;;563919;250;24148;-76
2022/12/20 02:11:13;;;;;;;8.17;5.47;;;3.30;99.90;2.30;100203;;;;572922;250;24127;-75
2022/12/20 02:13:41;;;;;;;8.07;5.73;;;3.30;99.90;2.40;100212;;;;564010;250;24091;-77
2022/12/20 02:16:10;;;;;;;5.60;4.80;;;3.30;99.90;2.40;100207;;;;564037;250;24104;-77
2022/12/20 02:18:47;;;;;;;6.60;5.20;;;3.30;99.90;2.40;100221;;;;572762;250;24097;-79
2022/12/20 02:21:39;;;;;;;8.13;5.67;;;3.40;99.90;2.40;100227;;;;573161;250;24100;-77
2022/12/20 02:24:24;;;;;;;7.93;5.87;;;3.40;99.90;2.40;100220;;;;559692;250;24132;-78
2022/12/20 02:27:16;;;;;;;13.40;6.43;;;3.40;99.90;2.40;100230;;;;563970;250;24139;-77
2022/12/20 02:30:12;;;;;;;9.07;5.93;;;3.40;99.90;2.50;100234;;;;566465;250;24128;-79
2022/12/20 02:33:04;;;;;;;10.43;5.73;;;3.40;99.90;2.50;100227;;;;561584;250;24118;-79
2022/12/20 02:35:31;;;;;;;9.50;6.13;;;3.40;99.90;2.50;100227;;;;564056;250;25134;-78
2022/12/20 02:38:02;;;;;;;13.40;6.80;;;3.40;99.90;2.50;100231;;;;572769;249;24106;-78
2022/12/20 02:40:39;;;;;;;11.53;6.10;;;3.40;99.90;2.50;100239;;;;570629;250;24099;-77
2022/12/20 02:45:53;;;;;;;10.70;7.43;;;3.50;99.90;2.50;100235;;;;562064;250;24129;-80
2022/12/20 02:48:20;;;;;;;10.30;6.63;;;3.50;99.90;2.60;100246;;;;564776;250;24174;-77
2022/12/20 02:50:49;;;;;;;10.90;7.07;;;3.50;99.90;2.60;100233;;;;563109;250;24186;-79
2022/12/20 02:53:17;;;;;;;13.97;7.50;;;3.50;99.90;2.60;100222;;;;573595;250;24135;-71
2022/12/20 02:55:54;;;;;;;13.83;8.27;;;3.50;99.90;2.60;100218;;;;564464;250;24100;-72
2022/12/20 02:58:37;;;;;;;14.40;7.93;;;3.60;99.90;2.60;100215;;;;559341;250;24125;-73
2022/12/20 03:01:14;;;;;;;15.90;8.30;;;3.50;99.90;2.70;100209;;;;567716;250;24089;-70
2022/12/20 03:03:42;;;;;;;11.23;7.40;;;3.60;99.90;2.70;100209;;;;563836;250;24092;-70
2022/12/20 03:06:09;;;;;;;11.77;8.27;;;3.60;99.90;2.70;100202;;;;572982;249;24116;-70
2022/12/20 03:08:37;;;;;;;14.07;8.27;;;3.60;99.90;2.70;100202;;;;563860;250;24120;-74
2022/12/20 03:11:05;;;;;;;16.27;8.00;;;3.60;99.90;2.70;100207;;;;564305;250;24128;-73
2022/12/20 03:13:33;;;;;;;13.80;8.70;;;3.70;99.90;2.70;100204;;;;564358;250;24124;-72
2022/12/20 03:16:01;;;;;;;14.03;7.90;;;3.70;99.90;2.80;100186;;;;564351;250;24092;-72
2022/12/20 03:18:30;;;;;;;14.20;9.87;;;3.70;99.90;2.80;100200;;;;564270;250;24203;-75
2022/12/20 03:20:58;;;;;;;12.47;7.70;;;3.70;99.90;2.70;100197;;;;564317;250;24135;-76
2022/12/20 03:23:26;;;;;;;12.47;8.27;;;3.70;99.90;2.70;100202;;;;562092;250;24177;-78
2022/12/20 03:25:54;;;;;;;16.17;11.10;;;3.70;99.90;2.70;100207;;;;564280;250;24096;-77
2022/12/20 03:28:22;;;;;;;16.73;9.03;;;3.70;99.90;2.70;100204;;;;573084;250;24150;-76
2022/12/20 03:30:50;;;;;;;19.07;9.40;;;3.60;99.90;2.80;100219;;;;564024;250;24108;-79
2022/12/20 03:33:18;;;;;;;18.57;8.50;;;3.70;99.90;2.80;100210;;;;564094;250;24101;-77
2022/12/20 03:35:49;;;;;;;15.87;9.17;;;3.70;99.90;2.80;100203;;;;564129;250;24151;-74
2022/12/20 03:38:15;;;;;;;23.95;15.80;;;3.70;99.90;2.80;100211;;;;567531;250;35249;-71
2022/12/20 03:40:43;;;;;;;22.60;13.63;;;3.70;99.90;2.80;100207;;;;572830;250;24162;-69
2022/12/20 03:43:11;;;;;;;18.10;11.27;;;3.70;99.90;2.80;100213;;;;572828;250;25293;-71
2022/12/20 03:45:39;;;;;;;17.07;11.37;;;3.80;99.90;2.90;100213;;;;572872;250;24132;-71
2022/12/20 03:48:07;;;;;;;19.60;10.53;;;3.80;99.90;2.90;100228;;;;572530;250;24095;-71
2022/12/20 03:50:38;;;;;;;18.07;9.37;;;3.80;99.90;2.90;100226;;;;572356;250;24121;-71
2022/12/20 03:53:03;;;;;;;24.35;16.67;;;3.80;99.90;2.90;100227;;;;562451;250;35318;-70
2022/12/20 03:55:31;;;;;;;21.30;12.60;;;3.80;99.90;2.90;100221;;;;559177;250;24197;-70
2022/12/20 03:57:59;;;;;;;24.67;16.53;;;3.90;99.90;3.00;100216;;;;572893;250;24147;-72
2022/12/20 04:00:27;;;;;;;19.80;13.57;;;3.90;99.90;3.00;100203;;;;572865;250;24113;-71
2022/12/20 04:02:55;;;;;;;19.63;11.33;;;3.90;99.90;3.00;100209;;;;574327;249;24106;-71
2022/12/20 04:05:23;;;;;;;19.00;11.00;;;3.90;99.90;3.00;100207;;;;573835;250;24146;-71
2022/12/20 04:07:51;;;;;;;22.07;10.27;;;3.90;99.90;3.00;100212;;;;573591;246;24136;-73
2022/12/20 04:10:19;;;;;;;14.23;8.63;;;3.90;99.90;3.00;100213;;;;573637;250;24076;-71
2022/12/20 04:12:47;;;;;;;17.30;9.40;;;3.90;99.90;3.00;100200;;;;564446;250;24111;-71
2022/12/20 04:15:16;;;;;;;15.20;9.13;;;3.90;99.90;3.00;100188;;;;564351;250;25116;-71
2022/12/20 04:17:43;;;;;;;19.10;11.33;;;3.90;99.90;3.00;100186;;;;564050;250;24137;-70
2022/12/20 04:20:20;;;;;;;17.70;9.73;;;3.90;99.90;2.90;100180;;;;572782;250;24108;-71
2022/12/20 04:22:50;;;;;;;13.10;8.97;;;3.80;99.90;2.90;100180;;;;563943;250;24104;-74
2022/12/20 04:25:18;;;;;;;13.23;8.40;;;3.90;99.90;2.90;100166;;;;561536;250;25167;-76
2022/12/20 04:27:46;;;;;;;16.10;9.93;;;3.80;99.90;2.90;100159;;;;560083;250;24113;-77
2022/12/20 04:30:14;;;;;;;14.80;8.40;;;3.80;99.90;2.90;100165;;;;561660;250;24088;-75
2022/12/20 04:32:46;;;;;;;16.67;9.53;;;3.80;99.90;2.90;100165;;;;564082;250;24122;-73
2022/12/20 04:35:10;;;;;;;16.70;8.83;;;3.80;99.90;3.00;100177;;;;573249;250;24137;-73
2022/12/20 04:37:39;;;;;;;18.37;10.50;;;3.80;99.90;3.00;100174;;;;563911;250;24116;-72
2022/12/20 04:40:07;;;;;;;19.57;9.47;;;3.80;99.90;3.00;100172;;;;572546;250;24152;-71
2022/12/20 04:42:35;;;;;;;15.63;9.57;;;3.80;99.90;3.00;100164;;;;567050;250;24109;-71
2022/12/20 04:45:06;;;;;;;10.73;8.87;;;3.90;99.90;3.00;100182;;;;563656;250;24102;-71
2022/12/20 04:47:31;;;;;;;15.57;9.93;;;3.80;99.90;3.00;100166;;;;558584;250;24157;-71
2022/12/20 04:49:59;;;;;;;15.57;9.07;;;3.90;99.90;3.00;100168;;;;563992;250;24101;-72
2022/12/20 04:55:13;;;;;;;21.30;9.50;;;4.00;99.90;3.10;100161;;;;564584;250;24104;-73
2022/12/20 04:57:41;;;;;;;15.27;9.20;;;4.00;99.90;3.10;100157;;;;563794;250;25204;-75
2022/12/20 05:00:13;;;;;;;15.90;8.40;;;4.00;99.90;3.10;100142;;;;563839;250;24147;-71
2022/12/20 05:02:37;;;;;;;18.97;10.60;;;4.00;99.90;3.10;100153;;;;561111;250;24135;-72
2022/12/20 05:05:06;;;;;;;16.77;9.17;;;4.00;99.90;3.20;100152;;;;572523;250;24151;-72
2022/12/20 05:07:33;;;;;;;14.50;8.43;;;4.00;99.90;3.20;100137;;;;567218;247;24109;-71
2022/12/20 05:10:01;;;;;;;20.27;9.23;;;4.10;99.90;3.20;100150;;;;563631;250;24167;-72
2022/12/20 05:12:29;;;;;;;10.27;7.70;;;4.10;99.90;3.20;100137;;;;563917;248;24109;-72
2022/12/20 05:14:57;;;;;;;14.60;8.53;;;4.10;99.90;3.20;100131;;;;565044;250;24118;-71
2022/12/20 05:17:25;;;;;;;14.70;9.77;;;4.10;99.90;3.30;100129;;;;564507;250;24115;-71
2022/12/20 05:19:56;;;;;;;14.37;8.87;;;4.10;99.90;3.30;100135;;;;564358;250;24091;-71
2022/12/20 05:27:53;;;;;;;14.20;8.67;;;4.20;99.90;3.40;100153;;;;562113;250;24095;-72
2022/12/20 05:30:21;;;;;;;20.77;10.20;;;4.30;99.90;3.40;100153;;;;564110;250;24201;-76
2022/12/20 05:32:50;;;;;;;21.20;10.50;;;4.30;99.90;3.40;100174;;;;573037;250;24148;-71
2022/12/20 05:35:18;;;;;;;15.57;8.53;;;4.30;99.90;3.40;100178;;;;572941;250;25128;-75
2022/12/20 05:37:46;;;;;;;15.10;8.27;;;4.30;99.90;3.40;100179;;;;564179;250;25135;-75
2022/12/20 05:40:15;;;;;;;18.97;10.23;;;4.30;99.90;3.40;100179;;;;563995;250;24102;-71
2022/12/20 05:42:42;;;;;;;16.33;10.57;;;4.40;99.90;3.50;100178;;;;572845;249;24215;-74
2022/12/20 05:45:13;;;;;;;15.90;10.10;;;4.30;99.90;3.40;100188;;;;572900;250;24100;-74
2022/12/20 05:47:38;;;;;;;17.50;8.93;;;4.30;99.90;3.40;100185;;;;558462;250;24105;-74
2022/12/20 05:50:10;;;;;;;20.30;11.90;;;4.30;99.90;3.40;100187;;;;563696;250;24162;-74
2022/12/20 05:52:34;;;;;;;19.93;11.50;;;4.30;99.90;3.40;100178;;;;563730;250;24135;-72
2022/12/20 05:55:02;;;;;;;20.60;10.50;;;4.30;99.90;3.40;100181;;;;573792;250;24156;-73
2022/12/20 05:57:30;;;;;;;19.40;11.20;;;4.30;99.90;3.40;100188;;;;573929;250;24093;-79
2022/12/20 05:59:59;;;;;;;16.90;9.57;;;4.30;99.90;3.40;100199;;;;572994;250;24177;-71
2022/12/20 06:02:28;;;;;;;25.27;10.73;;;4.30;99.90;3.40;100202;;;;564132;250;24213;-71
2022/12/20 06:04:57;;;;;;;21.80;11.53;;;4.30;99.90;3.40;100198;;;;573132;250;24135;-76
2022/12/20 06:07:23;;;;;;;18.27;10.60;;;4.30;99.90;3.40;100196;;;;572985;247;24151;-74
2022/12/20 06:09:51;;;;;;;20.27;11.57;;;4.30;99.90;3.40;100199;;;;572843;250;24131;-76
2022/12/20 06:12:19;;;;;;;21.43;13.00;;;4.30;99.90;3.40;100197;;;;572732;250;24101;-72
2022/12/20 06:14:51;;;;;;;23.93;12.47;;;4.30;99.90;3.40;100201;;;;572815;250;24139;-78
2022/12/20 06:17:19;;;;;;;25.63;12.23;;;4.30;99.90;3.40;100202;;;;572370;250;24114;-75
2022/12/20 06:19:47;;;;;;;33.17;13.87;;;4.30;99.90;3.40;100196;;;;564092;250;24122;-76
2022/12/20 06:22:13;;;;;;;26.47;11.97;;;4.30;99.90;3.40;100201;;;;564077;250;24126;-74
2022/12/20 06:24:41;;;;;;;24.37;13.00;;;4.20;99.90;3.40;100184;;;;573173;249;24141;-78
2022/12/20 06:27:10;;;;;;;29.73;12.20;;;4.30;99.90;3.40;100189;;;;573871;250;24091;-71
2022/12/20 06:29:37;;;;;;;27.53;12.10;;;4.30;99.90;3.40;100189;;;;573429;250;24134;-76
2022/12/20 06:32:05;;;;;;;26.43;11.87;;;4.30;99.90;3.30;100190;;;;573479;250;24112;-71
2022/12/20 06:34:33;;;;;;;26.50;13.43;;;4.20;99.90;3.30;100187;;;;573314;250;24143;-72
2022/12/20 06:37:05;;;;;;;23.40;11.93;;;4.20;99.90;3.30;100186;;;;573051;250;24121;-77
2022/12/20 06:39:29;;;;;;;28.43;13.37;;;4.20;99.90;3.30;100189;;;;558949;250;24162;-75
2022/12/20 06:41:57;;;;;;;23.83;12.43;;;4.20;99.90;3.30;100185;;;;573059;250;24103;-79
2022/12/20 06:44:25;;;;;;;26.30;11.90;;;4.20;99.90;3.30;100182;;;;572895;250;24097;-75
2022/12/20 06:46:53;;;;;;;24.07;13.10;;;4.20;99.90;3.30;100197;;;;559129;250;24159;-75
2022/12/20 06:49:21;;;;;;;25.60;12.43;;;4.20;99.90;3.30;100187;;;;572954;250;24127;-74
2022/12/20 06:51:49;;;;;;;17.97;10.23;;;4.20;99.90;3.30;100185;;;;572869;250;25197;-71
2022/12/20 06:54:21;;;;;;;34.50;16.80;;;4.20;99.90;3.30;100200;;;;573185;250;24123;-71
2022/12/20 06:56:45;;;;;;;26.73;14.20;;;4.10;99.90;3.30;100209;;;;572726;250;24103;-70
2022/12/20 06:59:14;;;;;;;21.07;11.33;;;4.20;99.90;3.30;100205;;;;573175;250;24128;-72
2022/12/20 07:01:41;;;;;;;46.95;24.92;;;4.10;99.90;3.30;100212;;;;567833;250;35449;-79
2022/12/20 07:04:09;;;;;;;48.63;26.97;;;4.20;99.90;3.30;100200;;;;573017;250;25202;-77
2022/12/20 07:06:37;;;;;;;33.63;18.13;;;4.20;99.90;3.30;100198;;;;573189;250;24150;-75
2022/12/20 07:09:08;;;;;;;25.13;13.07;;;4.20;99.90;3.30;100202;;;;572804;246;24113;-74
2022/12/20 07:11:33;;;;;;;25.80;13.63;;;4.30;99.90;3.40;100195;;;;563872;250;24167;-73
2022/12/20 07:14:02;;;;;;;24.10;12.37;;;4.30;99.90;3.40;100198;;;;572756;250;24141;-75
2022/12/20 07:16:31;;;;;;;28.17;12.30;;;4.20;99.90;3.40;100211;;;;572721;250;24101;-73
2022/12/20 07:18:58;;;;;;;23.60;12.07;;;4.30;99.90;3.40;100215;;;;572639;250;24136;-72
2022/12/20 07:21:29;;;;;;;27.07;13.30;;;4.30;99.90;3.40;100220;;;;563757;250;24102;-71
2022/12/20 07:23:55;;;;;;;27.83;12.90;;;4.40;99.90;3.40;100221;;;;572437;250;24129;-71
2022/12/20 07:26:23;;;;;;;32.33;14.70;;;4.30;99.90;3.40;100230;;;;570129;250;24195;-72
2022/12/20 07:28:51;;;;;;;25.17;12.63;;;4.40;99.90;3.50;100223;;;;564570;250;24140;-71
2022/12/20 07:31:19;;;;;;;28.53;13.03;;;4.30;99.90;3.50;100233;;;;573032;250;24097;-75
2022/12/20 07:33:47;;;;;;;29.20;13.53;;;4.40;99.90;3.40;100234;;;;572927;250;24150;-72
2022/12/20 07:36:17;;;;;;;38.37;15.80;;;4.40;99.90;3.50;100236;;;;573509;249;24088;-75
2022/12/20 07:38:45;;;;;;;25.43;13.70;;;4.40;99.90;3.50;100240;;;;574057;250;24107;-72
2022/12/20 07:41:13;;;;;;;23.87;11.67;;;4.40;99.90;3.50;100241;;;;564909;250;24176;-74
2022/12/20 07:43:41;;;;;;;25.27;12.77;;;4.40;99.90;3.50;100242;;;;570714;250;24138;-75
2022/12/20 07:46:12;;;;;;;27.33;13.73;;;4.40;99.90;3.50;100233;;;;559125;250;24133;-75
2022/12/20 07:48:37;;;;;;;36.70;18.03;;;4.40;99.90;3.50;100243;;;;572876;250;24121;-75
2022/12/20 07:51:23;;;;;;;35.57;16.43;;;4.40;99.90;3.50;100236;;;;561900;250;24137;-72
2022/12/20 07:53:51;;;;;;;28.57;14.20;;;4.40;99.90;3.50;100237;;;;560245;250;24105;-73
2022/12/20 07:56:23;;;;;;;27.10;13.57;;;4.40;99.90;3.50;100243;;;;565951;250;24105;-73
2022/12/20 07:58:47;;;;;;;29.90;13.50;;;4.40;99.90;3.50;100245;;;;560060;250;24089;-73
2022/12/20 08:01:15;;;;;;;26.80;12.90;;;4.40;99.90;3.50;100233;;;;558726;250;24105;-72
2022/12/20 08:03:43;;;;;;;25.20;13.50;;;4.40;99.90;3.50;100225;;;;572755;250;24196;-73
2022/12/20 08:06:11;;;;;;;38.22;21.23;;;4.40;99.90;3.60;100224;;;;555472;250;35317;-75
2022/12/20 08:08:39;;;;;;;34.27;15.60;;;4.50;99.90;3.60;100224;;;;572889;246;24117;-72
2022/12/20 08:11:07;;;;;;;28.77;15.27;;;4.50;99.90;3.60;100209;;;;573450;250;24155;-71
2022/12/20 08:13:34;;;;;;;28.83;13.77;;;4.50;99.90;3.60;100222;;;;573302;250;24123;-72
2022/12/20 08:16:07;;;;;;;26.37;12.63;;;4.60;99.90;3.70;100218;;;;565765;250;24148;-77
2022/12/20 08:18:30;;;;;;;30.37;13.37;;;4.60;99.90;3.70;100211;;;;559133;250;24099;-72
2022/12/20 08:20:59;;;;;;;22.67;12.57;;;4.60;99.90;3.70;100213;;;;573179;250;24136;-73
2022/12/20 08:23:26;;;;;;;20.67;12.07;;;4.60;99.90;3.70;100216;;;;573024;250;24101;-78
2022/12/20 08:25:55;;;;;;;19.87;11.00;;;4.60;99.90;3.80;100218;;;;573259;250;24134;-72
2022/12/20 08:28:23;;;;;;;22.30;12.10;;;4.70;99.90;3.80;100218;;;;573358;250;24151;-77
2022/12/20 08:30:55;;;;;;;27.80;13.27;;;4.70;99.90;3.80;100210;;;;573468;249;24090;-80
2022/12/20 08:33:19;;;;;;;30.57;13.40;;;4.70;99.90;3.80;100213;;;;562072;250;24102;-79
2022/12/20 08:35:48;;;;;;;27.90;12.27;;;4.80;99.90;3.90;100225;;;;573408;250;24131;-73
2022/12/20 08:38:17;;;;;;;24.57;13.57;;;4.80;99.90;3.90;100223;;;;572985;250;24130;-77
2022/12/20 08:40:45;;;;;;;25.13;11.97;;;4.80;99.90;3.90;100215;;;;573141;250;25175;-72
2022/12/20 08:43:16;;;;;;;25.73;12.13;;;4.80;99.90;3.90;100224;;;;573003;250;24092;-74
2022/12/20 08:45:40;;;;;;;26.87;12.47;;;4.80;99.90;4.00;100232;;;;572541;250;24169;-79
2022/12/20 08:48:08;;;;;;;23.17;11.63;;;4.90;99.90;4.00;100229;;;;573783;249;24091;-72
2022/12/20 08:50:36;;;;;;;23.57;12.37;;;4.90;99.90;4.00;100228;;;;574131;250;24103;-73
2022/12/20 08:53:05;;;;;;;23.43;12.30;;;4.90;99.90;4.00;100220;;;;573803;250;24105;-75
2022/12/20 08:55:33;;;;;;;34.80;12.73;;;4.90;99.90;4.10;100217;;;;573325;250;24115;-74
2022/12/20 08:58:01;;;;;;;22.63;11.63;;;5.00;99.90;4.10;100221;;;;573051;250;24103;-80
2022/12/20 09:00:29;;;;;;;26.93;12.60;;;5.00;99.90;4.10;100223;;;;573072;249;24107;-71
2022/12/20 09:02:57;;;;;;;20.83;12.27;;;5.00;99.90;4.20;100239;;;;573013;250;24135;-75
2022/12/20 09:05:24;;;;;;;22.93;13.47;;;5.10;99.90;4.20;100230;;;;573080;250;24174;-75
2022/12/20 09:07:53;;;;;;;23.20;12.63;;;5.10;99.90;4.30;100228;;;;572840;246;24209;-76
2022/12/20 09:10:22;;;;;;;21.63;12.13;;;5.10;99.90;4.20;100216;;;;573270;250;24090;-76
2022/12/20 09:12:50;;;;;;;24.90;13.70;;;5.10;99.90;4.20;100235;;;;573319;250;24146;-77
2022/12/20 09:15:18;;;;;;;25.70;13.07;;;5.10;99.90;4.20;100242;;;;573276;250;24099;-80
2022/12/20 09:17:46;;;;;;;23.60;12.10;;;5.10;99.90;4.30;100242;;;;573228;250;24134;-71
2022/12/20 09:20:14;;;;;;;27.40;13.67;;;5.10;99.90;4.30;100246;;;;573218;250;24138;-74
2022/12/20 09:22:41;;;;;;;26.37;12.00;;;5.20;99.90;4.30;100229;;;;564695;250;24132;-77
2022/12/20 09:25:12;;;;;;;24.47;14.00;;;5.20;99.90;4.30;100226;;;;573007;250;24159;-72
2022/12/20 09:27:41;;;;;;;24.17;12.53;;;5.20;99.90;4.40;100222;;;;564155;250;24161;-73
2022/12/20 09:30:06;;;;;;;27.70;12.37;;;5.20;99.90;4.40;100217;;;;564183;249;24215;-80
2022/12/20 09:32:37;;;;;;;27.20;14.37;;;5.30;99.90;4.40;100212;;;;564407;250;24124;-82
2022/12/20 09:35:02;;;;;;;24.13;12.30;;;5.30;99.90;4.40;100210;;;;572639;250;24097;-74
2022/12/20 09:37:32;;;;;;;26.90;12.50;;;5.30;99.90;4.40;100210;;;;572888;250;24165;-71
2022/12/20 09:40:00;;;;;;;22.30;13.60;;;5.30;99.90;4.50;100208;;;;572986;250;24107;-75
2022/12/20 09:42:35;;;;;;;22.17;11.67;;;5.30;99.90;4.40;100209;;;;573103;250;24189;-73
2022/12/20 09:45:06;;;;;;;24.50;13.53;;;5.30;99.90;4.40;100217;;;;572586;250;24166;-76
2022/12/20 09:47:34;;;;;;;23.13;12.67;;;5.30;99.90;4.40;100198;;;;560842;250;24162;-73
2022/12/20 09:50:05;;;;;;;21.53;11.33;;;5.30;99.90;4.40;100194;;;;573331;249;24150;-73
2022/12/20 09:52:35;;;;;;;30.62;18.10;;;5.20;99.90;4.30;100198;;;;554028;250;35386;-72
2022/12/20 09:55:30;;;;;;;24.93;15.20;;;5.20;99.90;4.30;100196;;;;572793;250;24188;-70
2022/12/20 09:58:16;;;;;;;19.70;12.03;;;5.20;99.90;4.30;100205;;;;564199;250;24115;-72
2022/12/20 10:00:50;;;;;;;21.73;12.43;;;5.10;99.90;4.20;100213;;;;565628;249;24143;-72
2022/12/20 10:03:21;;;;;;;21.47;11.80;;;5.10;99.90;4.20;100212;;;;570699;250;24136;-72
2022/12/20 10:05:52;;;;;;;25.57;11.83;;;5.10;99.90;4.20;100223;;;;565106;250;24107;-70
2022/12/20 10:08:26;;;;;;;25.23;12.33;;;5.10;99.90;4.20;100233;;;;560600;250;24189;-72
2022/12/20 10:10:57;;;;;;;16.60;9.97;;;5.10;99.90;4.30;100241;;;;573184;250;24085;-72
2022/12/20 10:14:02;;;;;;;24.40;11.93;;;5.10;99.90;4.20;100240;;;;573293;250;24107;-75
2022/12/20 10:16:27;;;;;;;22.60;11.43;;;5.10;99.90;4.20;100236;;;;572605;250;24116;-74
2022/12/20 10:19:22;;;;;;;22.73;12.07;;;5.10;99.90;4.20;100220;;;;564941;250;24099;-72
2022/12/20 10:22:04;;;;;;;20.30;11.60;;;5.10;99.90;4.20;100222;;;;564766;250;24088;-72
2022/12/20 10:24:32;;;;;;;24.50;11.47;;;5.10;99.90;4.30;100219;;;;572953;249;24120;-73
2022/12/20 10:27:15;;;;;;;18.37;11.80;;;5.10;99.90;4.30;100220;;;;570762;250;25230;-73
2022/12/20 10:29:46;;;;;;;19.00;10.13;;;5.10;99.90;4.30;100230;;;;566244;250;25135;-73
2022/12/20 10:32:14;;;;;;;21.37;11.40;;;5.20;99.90;4.30;100225;;;;559401;250;24120;-75
2022/12/20 10:34:57;;;;;;;26.63;11.93;;;5.20;99.90;4.40;100214;;;;573599;250;24140;-79
2022/12/20 10:37:25;;;;;;;20.93;11.67;;;5.20;99.90;4.40;100215;;;;559466;250;24160;-75
2022/12/20 10:39:52;;;;;;;25.67;17.62;;;5.30;99.90;4.40;100212;;;;568340;250;35473;-77
2022/12/20 10:42:36;;;;;;;27.97;14.93;;;5.30;99.90;4.50;100213;;;;573368;250;24102;-74
2022/12/20 10:45:03;;;;;;;28.20;19.42;;;5.30;99.90;4.50;100204;;;;557078;250;35405;-74
2022/12/20 10:47:40;;;;;;;26.43;16.07;;;5.40;99.90;4.50;100205;;;;564852;250;24151;-74
2022/12/20 10:50:08;;;;;;;24.73;14.13;;;5.40;99.90;4.60;100208;;;;573344;250;24115;-76
2022/12/20 10:52:39;;;;;;;23.73;12.43;;;5.50;99.90;4.60;100207;;;;573468;250;24166;-76
2022/12/20 10:55:03;;;;;;;29.13;14.33;;;5.50;99.90;4.70;100208;;;;564108;250;24101;-73
2022/12/20 10:57:32;;;;;;;32.20;16.90;;;5.60;99.90;4.80;100199;;;;558385;250;24079;-74
2022/12/20 11:00:04;;;;;;;28.30;17.77;;;5.70;99.90;4.90;100202;;;;572816;250;24192;-71
2022/12/20 11:02:33;;;;;;;30.80;15.07;;;5.80;99.90;5.00;100187;;;;572968;250;24112;-73
2022/12/20 11:05:10;;;;;;;24.43;13.20;;;5.90;99.90;5.10;100191;;;;572792;250;24153;-76
2022/12/20 11:07:38;;;;;;;23.13;12.53;;;6.00;99.90;5.20;100184;;;;564806;250;24150;-77
2022/12/20 11:10:25;;;;;;;23.23;12.50;;;6.20;99.90;5.30;100180;;;;571985;250;24104;-76
2022/12/20 11:12:59;;;;;;;23.07;12.13;;;6.20;99.90;5.40;100178;;;;574312;249;24133;-75
2022/12/20 11:15:23;;;;;;;27.60;14.13;;;6.30;99.90;5.40;100176;;;;561174;250;24128;-76
2022/12/20 11:17:51;;;;;;;26.90;11.83;;;6.30;99.90;5.40;100184;;;;573749;250;24079;-78
2022/12/20 11:20:31;;;;;;;24.13;11.67;;;6.30;99.90;5.40;100181;;;;573630;250;24141;-80
2022/12/20 11:23:11;;;;;;;24.27;12.23;;;6.30;99.90;5.40;100167;;;;573853;250;24134;-80
2022/12/20 11:26:00;;;;;;;24.17;12.63;;;6.30;99.90;5.30;100181;;;;564999;250;24131;-80
2022/12/20 11:28:40;;;;;;;18.10;11.03;;;6.20;99.90;5.20;100185;;;;559481;250;24114;-75
2022/12/20 11:31:11;;;;;;;24.60;12.53;;;6.20;99.90;5.20;100166;;;;573047;249;24082;-75
2022/12/20 11:33:48;;;;;;;16.57;10.57;;;6.10;99.90;5.20;100171;;;;573090;250;24150;-76
2022/12/20 11:36:24;;;;;;;26.12;17.52;;;6.10;99.90;5.20;100162;;;;560147;250;35355;-75
2022/12/20 11:38:54;;;;;;;22.00;14.33;;;6.00;99.90;5.10;100155;;;;573189;250;24097;-79